Time;durP1;ratioP1;P1;durP2;ratioP2;P2;SDS_P1;SDS_P2;PMS_P1;PMS_P2;Temp;Humidity;BMP_temperature;BMP_pressure;BME280_temperature;BME280_humidity;BME280_pressure;Samples;Min_cycle;Max_cycle;Signal;HPM_P1;HPM_P2
2022/11/28 00:00:05;;;;;;;9.18;6.35;;;5.10;1.00;;;;;;7390412;19;20390;-72
2022/11/28 00:02:35;;;;;;;8.52;6.60;;;5.10;1.00;;;;;;7390286;19;20011;-72
2022/11/28 00:05:05;;;;;;;11.63;6.38;;;5.10;1.00;;;;;;7391377;19;20011;-72
2022/11/28 00:07:35;;;;;;;8.90;6.32;;;5.10;1.00;;;;;;7392598;19;20046;-71
2022/11/28 00:10:09;;;;;;;9.38;6.57;;;5.10;1.00;;;;;;7390430;19;20415;-72
2022/11/28 00:12:39;;;;;;;8.10;6.38;;;5.10;1.00;;;;;;7392427;19;20031;-71
2022/11/28 00:15:12;;;;;;;9.45;6.60;;;5.10;1.00;;;;;;7392259;19;20015;-71
2022/11/28 00:17:42;;;;;;;9.63;6.50;;;5.10;1.00;;;;;;7390870;19;20464;-72
2022/11/28 00:20:12;;;;;;;7.32;5.78;;;5.00;1.00;;;;;;7389716;19;20089;-71
2022/11/28 00:22:42;;;;;;;8.55;6.28;;;5.00;1.00;;;;;;7388914;19;20022;-72
2022/11/28 00:25:15;;;;;;;7.28;5.70;;;5.10;1.00;;;;;;7392105;19;20517;-71
2022/11/28 00:27:44;;;;;;;8.95;5.78;;;5.00;1.00;;;;;;7390132;19;20010;-70
2022/11/28 00:30:15;;;;;;;7.72;5.72;;;5.00;1.00;;;;;;7388386;19;20015;-72
2022/11/28 00:32:45;;;;;;;8.90;5.95;;;5.00;1.00;;;;;;7391842;19;20015;-72
2022/11/28 00:35:14;;;;;;;8.82;6.13;;;5.00;1.00;;;;;;7391667;19;20010;-72
2022/11/28 00:37:44;;;;;;;8.32;5.80;;;5.00;1.00;;;;;;7391468;19;20021;-72
2022/11/28 00:40:17;;;;;;;9.00;6.15;;;5.00;1.00;;;;;;7388803;19;20070;-72
2022/11/28 00:42:47;;;;;;;7.45;5.82;;;5.00;1.00;;;;;;7388679;19;20361;-71
2022/11/28 00:45:17;;;;;;;7.82;5.40;;;5.00;1.00;;;;;;7390194;19;20474;-72
2022/11/28 00:47:48;;;;;;;8.07;6.15;;;5.00;1.00;;;;;;7391046;19;20022;-71
2022/11/28 00:50:18;;;;;;;9.85;6.47;;;5.00;1.00;;;;;;7393242;19;20015;-72
2022/11/28 00:52:47;;;;;;;9.48;6.50;;;5.10;1.00;;;;;;7389527;19;20037;-72
2022/11/28 00:55:20;;;;;;;8.02;6.35;;;5.10;1.00;;;;;;7391281;19;20537;-72
2022/11/28 00:57:50;;;;;;;8.15;6.47;;;5.10;1.00;;;;;;7390732;19;20484;-73
2022/11/28 01:00:21;;;;;;;8.65;6.35;;;5.10;1.00;;;;;;7388521;19;20350;-72
2022/11/28 01:02:51;;;;;;;7.60;5.78;;;5.10;1.00;;;;;;7390432;19;20350;-73
2022/11/28 01:05:21;;;;;;;8.88;6.68;;;5.00;1.00;;;;;;7389128;19;20022;-72
2022/11/28 01:07:50;;;;;;;8.88;6.68;;;5.00;1.00;;;;;;7390809;19;20019;-71
2022/11/28 01:10:23;;;;;;;8.05;6.05;;;5.00;1.00;;;;;;7388106;19;20035;-71
2022/11/28 01:12:53;;;;;;;9.77;6.85;;;5.00;1.00;;;;;;7390511;19;20021;-72
2022/11/28 01:15:23;;;;;;;9.93;6.90;;;5.00;1.00;;;;;;7390239;19;20090;-72
2022/11/28 01:17:53;;;;;;;9.00;6.38;;;5.00;1.00;;;;;;7390020;19;20046;-71
2022/11/28 01:20:22;;;;;;;9.98;7.25;;;5.00;1.00;;;;;;7388020;19;20090;-72
2022/11/28 01:22:52;;;;;;;9.13;7.25;;;5.00;1.00;;;;;;7389697;19;20018;-72
2022/11/28 01:25:25;;;;;;;10.88;7.00;;;5.00;1.00;;;;;;7389751;19;20502;-72
2022/11/28 01:27:55;;;;;;;10.50;7.13;;;5.00;1.00;;;;;;7389998;19;20010;-71
2022/11/28 01:30:25;;;;;;;10.35;7.57;;;5.00;1.00;;;;;;7387141;19;20035;-71
2022/11/28 01:32:54;;;;;;;10.85;7.53;;;5.10;1.00;;;;;;7395070;19;20038;-71
2022/11/28 01:35:24;;;;;;;9.95;7.03;;;5.10;1.00;;;;;;7404053;19;20502;-73
2022/11/28 01:37:55;;;;;;;9.05;7.60;;;5.10;1.00;;;;;;7404255;19;20031;-72
2022/11/28 01:40:27;;;;;;;12.95;7.60;;;5.10;1.00;;;;;;7401160;19;20088;-71
2022/11/28 01:42:57;;;;;;;10.52;7.47;;;5.10;1.00;;;;;;7403493;19;20014;-72
2022/11/28 01:45:30;;;;;;;10.70;7.32;;;5.10;1.00;;;;;;7403479;19;20022;-72
2022/11/28 01:48:05;;;;;;;9.52;7.25;;;5.10;1.00;;;;;;7403813;19;20071;-72
2022/11/28 01:50:36;;;;;;;10.65;7.53;;;5.10;1.00;;;;;;7402971;19;20497;-72
2022/11/28 01:53:09;;;;;;;12.10;7.78;;;5.20;1.00;;;;;;7402283;19;20077;-71
2022/11/28 01:55:48;;;;;;;9.38;6.82;;;5.20;1.00;;;;;;7403569;19;20038;-71
2022/11/28 01:58:18;;;;;;;9.93;7.18;;;5.10;1.00;;;;;;7402676;19;20091;-72
2022/11/28 02:00:48;;;;;;;9.48;7.40;;;5.10;1.00;;;;;;7403725;19;20019;-71
2022/11/28 02:03:23;;;;;;;9.40;6.97;;;5.10;1.00;;;;;;7401150;19;20368;-72
2022/11/28 02:05:54;;;;;;;9.15;7.30;;;5.10;1.00;;;;;;7403246;19;20492;-71
2022/11/28 02:08:26;;;;;;;9.00;7.15;;;5.10;1.00;;;;;;7402031;19;20357;-72
2022/11/28 02:11:22;;;;;;;10.48;7.28;;;5.10;1.00;;;;;;7401598;19;20034;-73
2022/11/28 02:13:59;;;;;;;8.55;6.47;;;5.10;1.00;;;;;;7402844;19;20015;-72
2022/11/28 02:16:47;;;;;;;10.45;7.55;;;5.10;1.00;;;;;;7403245;19;20007;-71
2022/11/28 02:19:39;;;;;;;11.30;7.43;;;5.10;1.00;;;;;;7400912;19;20470;-72
2022/11/28 02:22:18;;;;;;;10.48;6.80;;;5.10;1.00;;;;;;7402925;19;20014;-72
2022/11/28 02:25:13;;;;;;;9.35;7.10;;;5.20;1.00;;;;;;7401322;19;20025;-72
2022/11/28 02:28:08;;;;;;;8.88;6.45;;;5.30;1.00;;;;;;7402977;19;20017;-70
2022/11/28 02:30:51;;;;;;;6.82;5.38;;;5.30;1.00;;;;;;7402334;19;20007;-71
2022/11/28 02:33:29;;;;;;;9.57;6.20;;;5.30;1.00;;;;;;7402805;19;20014;-71
2022/11/28 02:36:08;;;;;;;8.55;5.95;;;5.30;1.00;;;;;;7401279;19;20034;-72
2022/11/28 02:38:48;;;;;;;7.85;6.20;;;5.30;1.00;;;;;;7401297;19;20358;-72
2022/11/28 02:41:24;;;;;;;7.40;5.30;;;5.30;1.00;;;;;;7403600;19;20011;-70
2022/11/28 02:44:01;;;;;;;10.23;5.78;;;5.30;1.00;;;;;;7397946;19;20017;-72
2022/11/28 02:46:39;;;;;;;7.50;5.13;;;5.20;1.00;;;;;;7395491;19;20015;-71
2022/11/28 02:49:18;;;;;;;7.80;5.90;;;5.20;1.00;;;;;;7395045;19;20523;-72
2022/11/28 02:51:51;;;;;;;7.43;5.22;;;5.20;1.00;;;;;;7397245;19;20028;-72
2022/11/28 02:54:23;;;;;;;8.80;5.68;;;5.20;1.00;;;;;;7395239;19;20015;-71
2022/11/28 02:56:55;;;;;;;7.45;5.30;;;5.10;1.00;;;;;;7395580;19;20011;-70
2022/11/28 02:59:34;;;;;;;7.07;5.13;;;5.10;1.00;;;;;;7392069;19;20017;-72
2022/11/28 03:02:05;;;;;;;8.75;5.38;;;5.10;1.00;;;;;;7395708;19;20015;-72
2022/11/28 03:04:46;;;;;;;7.60;5.63;;;5.00;1.00;;;;;;7391962;19;20031;-72
2022/11/28 03:07:29;;;;;;;10.30;6.25;;;5.00;1.00;;;;;;7393819;19;20011;-72
2022/11/28 03:10:09;;;;;;;7.28;5.70;;;5.00;1.00;;;;;;7392700;19;20014;-72
2022/11/28 03:12:52;;;;;;;8.48;5.70;;;5.00;1.00;;;;;;7394814;19;20074;-72
2022/11/28 03:15:25;;;;;;;6.88;5.57;;;4.90;1.00;;;;;;7396286;19;20010;-71
2022/11/28 03:18:04;;;;;;;6.55;5.25;;;4.90;1.00;;;;;;7395734;19;20038;-72
2022/11/28 03:20:45;;;;;;;8.27;5.53;;;4.90;1.00;;;;;;7393240;19;20023;-71
2022/11/28 03:23:18;;;;;;;8.55;6.40;;;4.90;1.00;;;;;;7394334;19;20327;-71
2022/11/28 03:25:59;;;;;;;8.70;6.25;;;4.90;1.00;;;;;;7391698;19;20025;-71
2022/11/28 03:28:35;;;;;;;9.98;6.63;;;4.90;1.00;;;;;;7393804;19;20052;-73
2022/11/28 03:31:15;;;;;;;8.32;6.10;;;4.80;1.00;;;;;;7393752;19;20015;-70
2022/11/28 03:33:50;;;;;;;9.52;6.03;;;4.90;1.00;;;;;;7393839;19;20090;-70
2022/11/28 03:36:25;;;;;;;;;;;4.90;1.00;;;;;;7394293;19;20039;-71
2022/11/28 03:39:00;;;;;;;9.70;6.30;;;4.90;1.00;;;;;;7392074;19;20311;-71
2022/11/28 03:41:37;;;;;;;8.90;6.18;;;4.90;1.00;;;;;;7393333;19;20023;-71
2022/11/28 03:44:12;;;;;;;8.30;5.85;;;4.90;1.00;;;;;;7391483;19;20349;-71
2022/11/28 03:46:47;;;;;;;9.25;6.32;;;4.90;1.00;;;;;;7393524;19;20019;-71
2022/11/28 03:49:22;;;;;;;8.18;6.22;;;4.90;1.00;;;;;;7394073;19;20461;-71
2022/11/28 03:51:59;;;;;;;8.65;6.43;;;4.90;1.00;;;;;;7391386;19;20014;-71
2022/11/28 03:54:36;;;;;;;9.43;6.45;;;4.90;1.00;;;;;;7393343;19;20018;-71
2022/11/28 03:57:14;;;;;;;10.07;6.80;;;4.80;1.50;;;;;;7392774;19;20027;-72
2022/11/28 03:59:47;;;;;;;9.50;6.72;;;4.80;2.30;;;;;;7392189;19;20014;-71
2022/11/28 04:02:23;;;;;;;10.20;6.78;;;4.80;2.20;;;;;;7392746;19;20478;-72
2022/11/28 04:04:59;;;;;;;9.23;6.28;;;4.90;1.60;;;;;;7390358;19;20055;-72
2022/11/28 04:07:40;;;;;;;8.45;5.72;;;4.90;1.50;;;;;;7392490;19;20360;-72
2022/11/28 04:10:17;;;;;;;11.40;6.78;;;4.80;1.00;;;;;;7388946;19;20077;-72
2022/11/28 04:12:54;;;;;;;9.73;6.35;;;4.80;1.50;;;;;;7391998;19;20021;-72
2022/11/28 04:15:31;;;;;;;7.90;5.90;;;4.90;1.50;;;;;;7392101;19;20027;-72
2022/11/28 04:18:08;;;;;;;9.57;6.18;;;4.90;1.50;;;;;;7391912;19;20025;-72
2022/11/28 04:20:43;;;;;;;9.70;6.80;;;4.80;1.50;;;;;;7389628;19;20385;-72
2022/11/28 04:23:19;;;;;;;9.68;6.15;;;4.80;1.50;;;;;;7391869;19;20027;-72
2022/11/28 04:25:55;;;;;;;9.50;6.50;;;4.80;1.50;;;;;;7389016;19;20025;-72
2022/11/28 04:28:27;;;;;;;11.00;6.55;;;4.80;2.00;;;;;;7390878;19;20018;-71
2022/11/28 04:31:00;;;;;;;8.57;6.50;;;4.80;3.20;;;;;;7391733;19;20025;-72
2022/11/28 04:33:34;;;;;;;9.25;6.78;;;4.70;3.00;;;;;;7391594;19;20035;-72
2022/11/28 04:36:06;;;;;;;9.05;6.40;;;4.80;2.40;;;;;;7391296;19;20015;-72
2022/11/28 04:38:40;;;;;;;9.90;6.90;;;4.80;2.80;;;;;;7390314;19;20018;-70
2022/11/28 04:41:15;;;;;;;9.00;6.40;;;4.80;3.20;;;;;;7391663;19;20010;-70
2022/11/28 04:43:50;;;;;;;9.77;6.53;;;4.80;3.50;;;;;;7391307;19;20090;-71
2022/11/28 04:46:23;;;;;;;;;;;4.80;3.30;;;;;;7390051;19;20057;-71
2022/11/28 04:48:54;;;;;;;10.02;6.47;;;4.80;4.10;;;;;;7391526;19;19970;-71
2022/11/28 04:51:28;;;;;;;9.23;6.97;;;4.80;3.50;;;;;;7390886;19;20035;-72
2022/11/28 04:54:04;;;;;;;9.45;6.07;;;4.80;2.60;;;;;;7391011;19;20097;-73
2022/11/28 04:56:41;;;;;;;9.05;6.22;;;4.80;2.50;;;;;;7389311;19;20018;-71
2022/11/28 04:59:13;;;;;;;6.95;5.40;;;4.80;3.10;;;;;;7389176;19;20018;-71
2022/11/28 05:01:47;;;;;;;9.55;5.88;;;4.80;2.80;;;;;;7390575;19;20022;-71
2022/11/28 05:04:17;;;;;;;6.82;5.32;;;4.80;2.50;;;;;;7390569;19;20019;-73
2022/11/28 05:06:47;;;;;;;9.02;6.25;;;4.80;1.10;;;;;;7388574;19;20014;-74
2022/11/28 05:09:20;;;;;;;9.18;6.32;;;4.80;1.00;;;;;;7388062;19;20017;-72
2022/11/28 05:11:49;;;;;;;9.13;5.82;;;4.80;1.00;;;;;;7390327;19;20017;-72
2022/11/28 05:14:19;;;;;;;9.63;6.30;;;4.80;1.00;;;;;;7390454;19;20010;-71
2022/11/28 05:16:49;;;;;;;10.05;5.90;;;4.80;1.00;;;;;;7389998;19;20027;-71
2022/11/28 05:19:19;;;;;;;8.65;6.03;;;4.80;1.00;;;;;;7388669;19;20101;-71
2022/11/28 05:21:51;;;;;;;8.48;5.80;;;4.80;1.00;;;;;;7389801;19;20364;-71
2022/11/28 05:24:24;;;;;;;13.55;5.97;;;4.80;1.00;;;;;;7390406;19;20018;-71
2022/11/28 05:27:00;;;;;;;9.50;5.88;;;4.70;1.00;;;;;;7388047;19;20014;-71
2022/11/28 05:29:30;;;;;;;9.57;6.30;;;4.70;1.00;;;;;;7388115;19;20032;-71
2022/11/28 05:32:00;;;;;;;9.27;6.05;;;4.70;1.00;;;;;;7389420;19;20077;-71
2022/11/28 05:34:30;;;;;;;8.27;6.10;;;4.70;1.00;;;;;;7389625;19;20014;-71
2022/11/28 05:37:00;;;;;;;8.73;6.07;;;4.70;1.40;;;;;;7389875;19;20010;-71
2022/11/28 05:39:33;;;;;;;10.35;6.80;;;4.60;1.30;;;;;;7387663;19;20466;-72
2022/11/28 05:42:03;;;;;;;10.05;6.07;;;4.60;1.40;;;;;;7389527;19;20011;-70
2022/11/28 05:44:32;;;;;;;11.57;6.15;;;4.60;1.70;;;;;;7389081;19;20006;-71
2022/11/28 05:47:05;;;;;;;8.38;6.15;;;4.60;1.40;;;;;;7387427;19;20010;-72
2022/11/28 05:49:35;;;;;;;8.85;5.60;;;4.60;1.70;;;;;;7390057;19;20465;-71
2022/11/28 05:52:04;;;;;;;9.90;6.32;;;4.60;1.30;;;;;;7388871;19;20128;-71
2022/11/28 05:54:37;;;;;;;7.10;5.63;;;4.70;1.40;;;;;;7388702;19;20031;-71
2022/11/28 05:57:07;;;;;;;9.75;6.90;;;4.60;1.40;;;;;;7388682;19;20014;-71
2022/11/28 05:59:37;;;;;;;10.65;6.25;;;4.70;1.60;;;;;;7387080;19;20078;-71
2022/11/28 06:02:07;;;;;;;9.30;5.97;;;4.60;1.40;;;;;;7388785;19;20013;-72
2022/11/28 06:04:40;;;;;;;13.55;6.70;;;4.60;2.40;;;;;;7388991;19;20018;-71
2022/11/28 06:07:10;;;;;;;8.40;6.35;;;4.60;2.20;;;;;;7386820;19;20482;-71
2022/11/28 06:09:43;;;;;;;10.18;6.20;;;4.70;3.10;;;;;;7387279;19;20018;-71
2022/11/28 06:12:13;;;;;;;11.38;6.50;;;4.70;3.00;;;;;;7388450;19;20371;-72
2022/11/28 06:14:43;;;;;;;9.43;6.63;;;4.70;2.70;;;;;;7387297;19;20019;-72
2022/11/28 06:17:12;;;;;;;10.70;6.72;;;4.70;2.90;;;;;;7388283;19;20014;-72
2022/11/28 06:19:42;;;;;;;12.38;7.55;;;4.60;3.10;;;;;;7387458;19;20036;-71
2022/11/28 06:22:12;;;;;;;12.73;7.05;;;4.70;2.80;;;;;;7395307;19;20478;-71
2022/11/28 06:24:45;;;;;;;15.13;7.53;;;4.70;2.90;;;;;;7395260;19;20014;-71
2022/11/28 06:27:15;;;;;;;14.35;8.27;;;4.70;2.90;;;;;;7392767;19;20040;-72
2022/11/28 06:29:45;;;;;;;13.77;7.53;;;4.60;3.70;;;;;;7393228;19;20020;-71
2022/11/28 06:32:15;;;;;;;14.30;7.65;;;4.60;3.70;;;;;;7393895;19;20500;-71
2022/11/28 06:34:50;;;;;;;10.55;7.43;;;4.60;4.00;;;;;;7395038;19;20020;-72
2022/11/28 06:37:20;;;;;;;11.35;7.65;;;4.70;3.70;;;;;;7395091;19;20010;-72
2022/11/28 06:39:52;;;;;;;14.90;8.18;;;4.70;4.50;;;;;;7392045;19;20014;-72
2022/11/28 06:42:22;;;;;;;13.00;7.68;;;4.70;5.10;;;;;;7394853;19;20481;-72
2022/11/28 06:44:55;;;;;;;12.05;8.45;;;4.70;4.30;;;;;;7392751;19;20028;-71
2022/11/28 06:47:25;;;;;;;11.13;7.43;;;4.80;4.80;;;;;;7391296;19;20021;-73
2022/11/28 06:49:54;;;;;;;14.27;8.57;;;4.80;3.40;;;;;;7395480;19;20020;-72
2022/11/28 06:52:24;;;;;;;11.43;7.97;;;4.90;3.30;;;;;;7392678;19;20018;-72
2022/11/28 06:54:57;;;;;;;11.77;8.15;;;4.90;3.50;;;;;;7393027;19;20023;-71
2022/11/28 06:57:27;;;;;;;11.88;7.93;;;4.90;3.20;;;;;;7393788;19;20363;-71
2022/11/28 06:59:57;;;;;;;13.80;8.65;;;4.90;3.20;;;;;;7392013;19;20233;-72
2022/11/28 07:02:26;;;;;;;11.02;7.65;;;4.90;3.80;;;;;;7393815;19;20002;-72
2022/11/28 07:04:56;;;;;;;10.90;7.22;;;4.90;2.80;;;;;;7394231;19;20007;-72
2022/11/28 07:07:26;;;;;;;13.27;7.90;;;5.00;2.90;;;;;;7391069;19;20008;-72
2022/11/28 07:09:59;;;;;;;11.80;7.60;;;5.00;2.20;;;;;;7391225;19;20014;-71
2022/11/28 07:12:29;;;;;;;11.20;7.38;;;5.00;1.60;;;;;;7393948;19;20017;-72
2022/11/28 07:14:58;;;;;;;15.30;8.20;;;5.00;1.70;;;;;;7393746;19;20492;-72
2022/11/28 07:17:29;;;;;;;11.88;7.90;;;5.10;2.30;;;;;;7392819;19;20103;-71
2022/11/28 07:19:58;;;;;;;13.18;7.88;;;5.10;2.50;;;;;;7391800;19;20014;-72
2022/11/28 07:22:28;;;;;;;12.32;7.85;;;5.10;1.20;;;;;;7392653;19;20019;-71
2022/11/28 07:25:01;;;;;;;12.65;8.02;;;5.20;1.00;;;;;;7391375;19;20022;-71
2022/11/28 07:27:30;;;;;;;15.23;7.35;;;5.20;1.60;;;;;;7391288;19;20509;-71
2022/11/28 07:30:00;;;;;;;13.38;8.10;;;5.20;1.00;;;;;;7389622;19;20019;-71
2022/11/28 07:32:32;;;;;;;12.25;8.23;;;5.30;1.00;;;;;;7392504;19;20031;-71
2022/11/28 07:35:03;;;;;;;15.95;7.57;;;5.30;1.00;;;;;;7393396;19;20033;-72
2022/11/28 07:37:33;;;;;;;10.88;7.65;;;5.20;1.00;;;;;;7392946;19;20038;-71
2022/11/28 07:40:07;;;;;;;18.25;8.25;;;5.20;1.00;;;;;;7388705;19;20426;-72
2022/11/28 07:42:36;;;;;;;14.23;8.45;;;5.10;1.70;;;;;;7392861;19;20021;-72
2022/11/28 07:45:08;;;;;;;16.67;8.25;;;5.20;1.70;;;;;;7392916;19;20018;-72
2022/11/28 07:47:38;;;;;;;14.93;8.65;;;5.20;1.70;;;;;;7390932;19;20078;-71
2022/11/28 07:50:09;;;;;;;14.85;8.73;;;5.20;1.70;;;;;;7392688;19;20018;-72
2022/11/28 07:52:39;;;;;;;16.02;9.02;;;5.30;2.20;;;;;;7392226;19;20031;-72
2022/11/28 07:55:11;;;;;;;15.43;9.15;;;5.30;1.80;;;;;;7392080;19;20015;-71
2022/11/28 07:57:41;;;;;;;13.88;8.75;;;5.40;1.70;;;;;;7391524;19;20387;-72
2022/11/28 08:00:12;;;;;;;12.90;8.80;;;5.40;1.00;;;;;;7388831;19;20446;-72
2022/11/28 08:02:42;;;;;;;14.98;9.30;;;5.50;1.30;;;;;;7392246;19;20014;-72
2022/11/28 08:05:14;;;;;;;15.10;8.60;;;5.50;1.00;;;;;;7390769;19;20018;-72
2022/11/28 08:07:44;;;;;;;15.45;8.68;;;5.60;1.00;;;;;;7390237;19;20014;-72
2022/11/28 08:10:16;;;;;;;14.63;9.43;;;5.60;1.00;;;;;;7390840;19;20136;-72
2022/11/28 08:12:46;;;;;;;14.07;8.70;;;5.70;1.00;;;;;;7392249;19;20038;-72
2022/11/28 08:15:16;;;;;;;31.42;20.25;;;5.70;1.00;;;;;;7391861;19;20014;-72
2022/11/28 08:17:46;;;;;;;15.05;10.02;;;5.90;1.00;;;;;;7391830;19;20032;-72
2022/11/28 08:20:16;;;;;;;17.52;8.15;;;5.90;1.00;;;;;;7388868;19;20322;-72
2022/11/28 08:22:45;;;;;;;11.32;7.63;;;5.80;1.00;;;;;;7390115;19;20011;-72
2022/11/28 08:25:18;;;;;;;14.13;8.07;;;5.80;1.00;;;;;;7392064;19;20689;-72
2022/11/28 08:27:48;;;;;;;12.93;6.70;;;5.90;1.00;;;;;;7389833;19;20014;-72
2022/11/28 08:30:18;;;;;;;12.18;7.03;;;5.90;1.00;;;;;;7387836;19;20015;-72
2022/11/28 08:32:48;;;;;;;15.15;6.75;;;5.90;1.00;;;;;;7390423;19;20022;-72
2022/11/28 08:35:18;;;;;;;14.20;6.57;;;6.00;1.00;;;;;;7391013;19;20482;-71
2022/11/28 08:37:48;;;;;;;13.80;7.00;;;6.00;1.00;;;;;;7390668;19;20019;-72
2022/11/28 08:40:21;;;;;;;11.73;7.03;;;6.00;1.00;;;;;;7388112;19;20049;-72
2022/11/28 08:42:51;;;;;;;9.77;6.80;;;6.10;1.00;;;;;;7389951;19;20106;-72
2022/11/28 08:45:21;;;;;;;11.52;7.03;;;6.10;1.00;;;;;;7387246;19;20022;-72
2022/11/28 08:47:51;;;;;;;12.77;6.93;;;6.10;1.00;;;;;;7377512;19;20078;-71
2022/11/28 08:50:21;;;;;;;11.38;7.30;;;6.10;1.00;;;;;;7326144;19;20473;-73
2022/11/28 08:52:51;;;;;;;12.05;7.82;;;6.20;1.00;;;;;;7361443;19;20018;-72
2022/11/28 08:55:23;;;;;;;12.65;7.63;;;6.20;1.00;;;;;;7356089;19;20051;-72
2022/11/28 08:58:01;;;;;;;11.32;7.50;;;6.20;1.00;;;;;;7359349;19;20015;-73
2022/11/28 09:00:31;;;;;;;16.50;7.55;;;6.30;1.00;;;;;;7379787;19;20018;-71
2022/11/28 09:03:01;;;;;;;12.65;7.32;;;6.30;1.00;;;;;;7361447;19;20049;-71
2022/11/28 09:05:31;;;;;;;12.55;7.30;;;6.30;1.00;;;;;;7355294;19;20014;-71
2022/11/28 09:08:01;;;;;;;9.73;6.70;;;6.40;1.00;;;;;;7359289;19;20039;-71
2022/11/28 09:10:37;;;;;;;17.05;7.03;;;6.50;1.00;;;;;;7356358;19;20014;-72
2022/11/28 09:13:08;;;;;;;13.10;7.75;;;6.50;1.00;;;;;;7362809;19;20101;-72
2022/11/28 09:15:42;;;;;;;14.68;7.20;;;6.60;1.00;;;;;;7382364;19;20085;-72
2022/11/28 09:18:13;;;;;;;11.68;6.32;;;6.60;1.00;;;;;;7359358;19;20007;-73
2022/11/28 09:20:43;;;;;;;11.02;7.32;;;6.70;1.00;;;;;;7355182;19;20006;-72
2022/11/28 09:23:13;;;;;;;11.68;7.78;;;6.70;1.00;;;;;;7360700;19;20010;-72
2022/11/28 09:25:46;;;;;;;12.45;7.57;;;6.80;1.00;;;;;;7360563;19;20002;-72
2022/11/28 09:28:17;;;;;;;13.60;8.32;;;6.80;1.00;;;;;;7358431;19;20011;-72
2022/11/28 09:33:26;;;;;;;14.23;7.65;;;6.80;1.00;;;;;;7382075;19;20018;-72
2022/11/28 09:35:57;;;;;;;11.40;7.35;;;6.80;1.00;;;;;;7360015;19;20018;-72
2022/11/28 09:38:27;;;;;;;12.95;8.02;;;6.90;1.00;;;;;;7358108;19;20664;-72
2022/11/28 09:40:59;;;;;;;13.48;7.68;;;6.90;1.00;;;;;;7355830;19;20010;-73
2022/11/28 09:43:33;;;;;;;10.45;7.60;;;7.00;1.00;;;;;;7361076;19;20020;-72
2022/11/28 09:46:09;;;;;;;14.02;7.45;;;7.00;1.00;;;;;;7359536;19;20039;-73
2022/11/28 09:48:44;;;;;;;13.80;7.85;;;7.00;1.00;;;;;;7378093;19;20021;-72
2022/11/28 09:51:23;;;;;;;12.15;7.63;;;7.10;1.00;;;;;;7359269;19;20668;-71
2022/11/28 09:54:03;;;;;;;13.40;7.47;;;7.10;1.00;;;;;;7390307;19;20017;-72
2022/11/28 09:56:36;;;;;;;12.40;7.45;;;7.00;1.00;;;;;;7393008;19;20085;-72
2022/11/28 09:59:14;;;;;;;10.95;7.75;;;7.10;1.00;;;;;;7393146;19;20482;-72
2022/11/28 10:01:51;;;;;;;13.65;7.80;;;7.00;1.00;;;;;;7395166;19;20018;-70
2022/11/28 10:04:30;;;;;;;15.80;7.60;;;7.10;1.00;;;;;;7360086;19;20010;-71
2022/11/28 10:07:05;;;;;;;17.50;8.38;;;7.10;1.00;;;;;;7365530;19;20036;-72
2022/11/28 10:09:49;;;;;;;12.45;7.60;;;7.20;1.00;;;;;;7357859;19;20010;-71
2022/11/28 10:12:32;;;;;;;10.05;7.60;;;7.10;1.00;;;;;;7366671;19;20011;-71
2022/11/28 10:15:17;;;;;;;12.95;8.23;;;7.20;1.00;;;;;;7366401;19;20021;-72
2022/11/28 10:17:54;;;;;;;11.32;7.97;;;7.20;1.00;;;;;;7365938;19;20015;-72
2022/11/28 10:20:28;;;;;;;14.75;9.32;;;7.10;1.00;;;;;;7379040;19;20033;-72
2022/11/28 10:23:02;;;;;;;14.27;9.83;;;7.20;1.00;;;;;;7365666;19;20011;-72
2022/11/28 10:25:36;;;;;;;10.68;8.60;;;7.20;1.00;;;;;;7364869;19;20109;-72
2022/11/28 10:28:14;;;;;;;14.93;8.25;;;7.30;1.00;;;;;;7364017;19;20021;-72
2022/11/28 10:30:49;;;;;;;11.23;7.75;;;7.40;1.00;;;;;;7362574;19;20015;-72
2022/11/28 10:33:26;;;;;;;14.15;7.93;;;7.50;1.00;;;;;;7366523;19;20026;-71
2022/11/28 10:35:58;;;;;;;12.60;7.43;;;7.50;1.00;;;;;;7365339;19;20014;-72
2022/11/28 10:38:30;;;;;;;22.33;7.80;;;7.60;1.00;;;;;;7384628;19;20021;-72
2022/11/28 10:41:06;;;;;;;14.15;7.50;;;7.70;1.00;;;;;;7360140;19;20021;-72
2022/11/28 10:43:49;;;;;;;12.23;7.50;;;7.80;1.00;;;;;;7365650;19;20023;-72
2022/11/28 10:46:43;;;;;;;12.68;7.25;;;7.90;1.00;;;;;;7365781;19;20053;-71
2022/11/28 10:49:28;;;;;;;10.45;6.90;;;7.70;1.00;;;;;;7360185;19;20128;-71
2022/11/28 10:52:02;;;;;;;;;;;7.80;1.00;;;;;;7365865;19;20014;-72
2022/11/28 10:54:52;;;;;;;8.68;6.20;;;7.80;1.00;;;;;;7366267;19;20230;-72
2022/11/28 10:57:25;;;;;;;11.90;7.15;;;7.80;1.00;;;;;;7365588;19;20018;-71
2022/11/28 11:00:13;;;;;;;10.63;7.63;;;7.90;1.00;;;;;;7357192;19;20904;-71
2022/11/28 11:02:47;;;;;;;12.02;7.05;;;8.10;1.00;;;;;;7365985;19;20124;-71
2022/11/28 11:05:20;;;;;;;12.50;6.95;;;8.00;1.00;;;;;;7389649;19;20011;-71
2022/11/28 11:07:53;;;;;;;21.30;10.63;;;8.10;1.00;;;;;;7392732;19;20029;-72
2022/11/28 11:10:28;;;;;;;13.02;8.88;;;8.30;1.00;;;;;;7385188;19;20015;-72
2022/11/28 11:12:59;;;;;;;12.73;7.43;;;8.30;1.00;;;;;;7393769;19;20003;-71
2022/11/28 11:15:34;;;;;;;12.88;7.47;;;8.20;1.00;;;;;;7392169;19;20019;-72
2022/11/28 11:18:21;;;;;;;13.60;6.93;;;8.10;1.00;;;;;;7392425;19;20038;-72
2022/11/28 11:20:50;;;;;;;9.43;6.78;;;8.00;1.00;;;;;;7385778;19;20041;-72
2022/11/28 11:23:23;;;;;;;13.48;8.45;;;7.90;1.00;;;;;;7392685;19;20016;-71
2022/11/28 11:25:57;;;;;;;13.88;8.55;;;8.00;1.00;;;;;;7390618;19;20015;-71
2022/11/28 11:28:40;;;;;;;11.95;7.80;;;8.10;1.00;;;;;;7390476;19;20478;-72
2022/11/28 11:31:22;;;;;;;12.00;7.80;;;8.10;1.00;;;;;;7388385;19;20127;-72
2022/11/28 11:33:55;;;;;;;12.90;7.40;;;8.10;1.00;;;;;;7392887;19;20014;-72
2022/11/28 11:36:28;;;;;;;11.68;7.57;;;8.20;1.00;;;;;;7391044;19;20403;-72
2022/11/28 11:39:17;;;;;;;11.10;6.97;;;8.10;1.00;;;;;;7389984;19;20030;-72
2022/11/28 11:41:49;;;;;;;14.00;7.95;;;8.10;1.00;;;;;;7388653;19;20493;-71
2022/11/28 11:44:33;;;;;;;11.88;7.30;;;8.10;1.00;;;;;;7392585;19;20814;-70
2022/11/28 11:47:07;;;;;;;12.02;7.57;;;7.90;1.00;;;;;;7391484;19;20498;-70
2022/11/28 11:49:38;;;;;;;11.63;8.07;;;7.80;1.00;;;;;;7382692;19;20010;-72
2022/11/28 11:52:18;;;;;;;16.38;7.72;;;7.80;1.00;;;;;;7391875;19;20019;-72
2022/11/28 11:55:04;;;;;;;11.13;8.02;;;7.80;1.00;;;;;;7392161;19;20082;-72
2022/11/28 11:57:39;;;;;;;10.40;8.05;;;7.70;1.00;;;;;;7390760;19;20029;-74
2022/11/28 12:00:17;;;;;;;13.38;7.78;;;7.70;3.00;;;;;;7381249;19;20015;-73
2022/11/28 12:02:55;;;;;;;14.85;8.75;;;7.70;3.30;;;;;;7392302;19;20022;-72
2022/11/28 12:05:30;;;;;;;11.60;8.02;;;7.60;4.90;;;;;;7389675;19;20070;-72
2022/11/28 12:08:30;;;;;;;13.60;8.77;;;7.60;7.40;;;;;;7389160;19;20038;-71
2022/11/28 12:11:12;;;;;;;13.05;8.98;;;7.70;8.60;;;;;;7384550;19;20124;-71
2022/11/28 12:13:42;;;;;;;13.70;8.57;;;7.60;6.20;;;;;;7390780;19;20082;-72
2022/11/28 12:16:30;;;;;;;13.10;8.73;;;7.70;7.00;;;;;;7390182;19;20018;-71
2022/11/28 12:19:14;;;;;;;13.35;8.73;;;7.70;9.90;;;;;;7388107;19;20332;-73
2022/11/28 12:21:57;;;;;;;14.35;8.35;;;7.70;10.60;;;;;;7387854;19;20336;-71
2022/11/28 12:24:35;;;;;;;12.07;8.25;;;7.60;10.70;;;;;;7389588;19;20362;-72
2022/11/28 12:27:15;;;;;;;12.93;8.68;;;7.60;11.00;;;;;;7389877;19;20035;-72
2022/11/28 12:29:57;;;;;;;24.27;14.90;;;7.60;10.70;;;;;;7379801;19;20019;-71
2022/11/28 12:32:42;;;;;;;14.63;10.27;;;7.80;11.60;;;;;;7390992;19;20018;-71
2022/11/28 12:35:28;;;;;;;13.35;9.57;;;7.80;11.20;;;;;;7391492;19;20537;-71
2022/11/28 12:38:06;;;;;;;15.80;9.02;;;7.80;11.90;;;;;;7391545;19;20086;-71
2022/11/28 12:40:52;;;;;;;14.45;9.60;;;7.80;11.40;;;;;;7383006;19;20604;-72
2022/11/28 12:43:35;;;;;;;15.52;9.65;;;7.80;12.10;;;;;;7390696;19;20465;-70
2022/11/28 12:46:12;;;;;;;14.10;10.00;;;7.90;12.80;;;;;;7388023;19;20010;-72
2022/11/28 12:48:52;;;;;;;12.35;8.93;;;7.80;11.40;;;;;;7387156;19;20575;-71
2022/11/28 12:51:36;;;;;;;15.18;9.52;;;7.80;11.30;;;;;;7381629;19;20010;-72
2022/11/28 12:54:23;;;;;;;14.95;8.98;;;7.90;10.70;;;;;;7389035;19;20035;-72
2022/11/28 12:56:59;;;;;;;16.23;9.13;;;7.90;10.50;;;;;;7383722;19;20019;-71
2022/11/28 12:59:36;;;;;;;12.60;9.10;;;7.90;9.10;;;;;;7378267;19;20035;-71
2022/11/28 13:02:28;;;;;;;13.20;8.88;;;7.90;11.00;;;;;;7386897;19;20102;-72
2022/11/28 13:05:21;;;;;;;13.15;8.63;;;8.00;11.50;;;;;;7342484;19;20014;-72
2022/11/28 13:08:16;;;;;;;14.43;9.55;;;8.00;11.20;;;;;;7355150;19;20524;-72
2022/11/28 13:10:51;;;;;;;13.65;9.40;;;8.10;12.20;;;;;;7350265;19;20097;-72
2022/11/28 13:13:28;;;;;;;11.82;8.68;;;8.10;12.50;;;;;;7357617;19;20039;-71
2022/11/28 13:16:09;;;;;;;12.63;8.48;;;8.20;12.00;;;;;;7354930;19;20010;-72
2022/11/28 13:18:42;;;;;;;11.85;8.75;;;8.10;11.60;;;;;;7358788;19;20083;-72
2022/11/28 13:21:23;;;;;;;16.10;9.13;;;8.10;12.90;;;;;;7350426;19;20463;-70
2022/11/28 13:24:02;;;;;;;13.45;8.95;;;8.10;9.70;;;;;;7367283;19;20030;-71
2022/11/28 13:26:57;;;;;;;13.18;9.30;;;8.20;11.00;;;;;;7380666;19;20062;-72
2022/11/28 13:29:35;;;;;;;14.98;8.75;;;8.20;10.30;;;;;;7350539;19;20073;-71
2022/11/28 13:32:14;;;;;;;12.15;8.93;;;8.30;11.90;;;;;;7359875;19;20115;-70
2022/11/28 13:34:45;;;;;;;17.38;10.98;;;8.30;11.10;;;;;;7359187;19;20010;-71
2022/11/28 13:37:20;;;;;;;13.25;8.55;;;8.40;11.60;;;;;;7358711;19;20013;-70
2022/11/28 13:40:19;;;;;;;15.90;9.93;;;8.30;11.10;;;;;;7350984;19;20413;-70